createdAt,value
2023-11-04T00:01:30.113Z,9.55
2023-11-04T00:03:57.988Z,9.13
2023-11-04T00:06:25.472Z,8.70
2023-11-04T00:08:53.483Z,8.05
2023-11-04T00:11:20.900Z,7.72
2023-11-04T00:13:48.687Z,6.00
2023-11-04T00:16:16.121Z,6.05
2023-11-04T00:18:43.970Z,5.63
2023-11-04T00:21:11.488Z,4.68
2023-11-04T00:23:39.289Z,4.18
2023-11-04T00:26:06.792Z,3.78
2023-11-04T00:28:34.636Z,3.85
2023-11-04T00:31:02.234Z,4.10
2023-11-04T00:33:30.225Z,4.72
2023-11-04T00:35:57.815Z,5.43
2023-11-04T00:38:25.550Z,4.95
2023-11-04T00:40:52.989Z,5.88
2023-11-04T00:43:20.802Z,6.18
2023-11-04T00:45:48.469Z,4.55
2023-11-04T00:48:16.371Z,5.03
2023-11-04T00:50:43.879Z,4.35
2023-11-04T00:53:11.686Z,3.85
2023-11-04T00:55:39.301Z,3.80
2023-11-04T00:58:07.082Z,2.67
2023-11-04T01:00:36.289Z,3.13
2023-11-04T01:03:04.286Z,3.67
2023-11-04T01:05:31.839Z,3.75
2023-11-04T01:07:59.994Z,2.72
2023-11-04T01:10:27.473Z,2.20
2023-11-04T01:12:55.300Z,2.85
2023-11-04T01:15:22.814Z,3.10
2023-11-04T01:17:50.705Z,2.85
2023-11-04T01:20:18.854Z,2.17
2023-11-04T01:22:46.910Z,1.90
2023-11-04T01:25:14.360Z,2.60
2023-11-04T01:27:42.524Z,1.67
2023-11-04T01:30:11.306Z,2.05
2023-11-04T01:32:39.333Z,1.08
2023-11-04T01:35:08.850Z,1.83
2023-11-04T01:37:36.669Z,0.70
2023-11-04T01:40:08.316Z,0.88
2023-11-04T01:42:36.205Z,0.85
2023-11-04T01:45:04.464Z,1.15
2023-11-04T01:47:32.195Z,0.70
2023-11-04T01:49:59.796Z,0.80
2023-11-04T01:52:27.621Z,1.10
2023-11-04T01:54:55.253Z,0.63
2023-11-04T01:57:23.087Z,0.60
2023-11-04T01:59:50.664Z,0.40
2023-11-04T02:02:19.775Z,0.63
2023-11-04T02:04:47.324Z,0.70
2023-11-04T02:07:15.127Z,0.98
2023-11-04T02:09:42.664Z,1.05
2023-11-04T02:12:10.874Z,1.23
2023-11-04T02:14:39.709Z,0.93
2023-11-04T02:17:07.621Z,0.60
2023-11-04T02:19:35.128Z,0.95
2023-11-04T02:22:03.203Z,0.45
2023-11-04T02:24:30.744Z,0.35
2023-11-04T02:26:58.745Z,0.60
2023-11-04T02:29:26.228Z,0.50
2023-11-04T02:31:54.655Z,0.90
2023-11-04T02:34:22.177Z,0.50
2023-11-04T02:36:50.087Z,0.88
2023-11-04T02:39:20.191Z,0.40
2023-11-04T02:41:48.164Z,0.60
2023-11-04T02:44:15.888Z,1.08
2023-11-04T02:46:43.655Z,0.73
2023-11-04T02:49:11.935Z,0.70
2023-11-04T02:51:39.961Z,0.75
2023-11-04T02:54:07.449Z,0.85
2023-11-04T02:56:35.224Z,0.70
2023-11-04T02:59:02.629Z,0.40
2023-11-04T03:01:30.446Z,0.77
2023-11-04T03:03:59.588Z,0.68
2023-11-04T03:06:27.565Z,1.10
2023-11-04T03:08:54.980Z,0.77
2023-11-04T03:11:23.877Z,0.85
2023-11-04T03:13:51.386Z,0.70
2023-11-04T03:16:20.855Z,1.13
2023-11-04T03:18:49.196Z,0.73
2023-11-04T03:21:17.242Z,0.95
2023-11-04T03:23:46.797Z,0.55
2023-11-04T03:26:14.713Z,0.77
2023-11-04T03:28:42.256Z,0.70
2023-11-04T03:31:10.000Z,0.85
2023-11-04T03:33:38.897Z,1.00
2023-11-04T03:36:07.025Z,0.70
2023-11-04T03:38:35.505Z,1.25
2023-11-04T03:41:03.943Z,0.55
2023-11-04T03:43:31.671Z,0.93
2023-11-04T03:46:01.780Z,0.90
2023-11-04T03:48:30.961Z,2.67
2023-11-04T03:50:58.797Z,0.60
2023-11-04T03:53:26.296Z,0.80
2023-11-04T03:55:54.797Z,0.80
2023-11-04T03:58:22.281Z,0.60
2023-11-04T04:00:50.375Z,0.50
2023-11-04T04:03:17.995Z,0.63
2023-11-04T04:05:45.817Z,0.22
2023-11-04T04:08:13.320Z,0.80
2023-11-04T04:10:41.169Z,0.70
2023-11-04T04:13:09.436Z,2.03
2023-11-04T04:15:37.400Z,1.80
2023-11-04T04:18:04.971Z,2.10
2023-11-04T04:20:32.867Z,1.20
2023-11-04T04:23:00.315Z,1.75
2023-11-04T04:25:28.065Z,1.27
2023-11-04T04:27:55.552Z,1.42
2023-11-04T04:30:23.415Z,1.30
2023-11-04T04:32:51.012Z,1.48
2023-11-04T04:35:18.808Z,1.13
2023-11-04T04:37:46.229Z,2.40
2023-11-04T04:40:14.075Z,1.92
2023-11-04T04:42:41.572Z,1.90
2023-11-04T04:45:10.906Z,1.00
2023-11-04T04:47:40.192Z,2.10
2023-11-04T04:50:08.144Z,1.30
2023-11-04T04:52:35.639Z,1.95
2023-11-04T04:55:03.887Z,1.63
2023-11-04T04:57:32.251Z,1.80
2023-11-04T05:00:00.179Z,1.65
2023-11-04T05:02:27.745Z,1.63
2023-11-04T05:04:55.502Z,2.13
2023-11-04T05:07:23.169Z,2.22
2023-11-04T05:09:51.024Z,1.45
2023-11-04T05:12:18.476Z,2.28
2023-11-04T05:14:46.250Z,3.30
2023-11-04T05:17:13.639Z,2.60
2023-11-04T05:19:41.592Z,2.00
2023-11-04T05:22:09.050Z,2.25
2023-11-04T05:24:37.252Z,2.47
2023-11-04T05:27:04.875Z,2.17
2023-11-04T05:29:32.644Z,2.28
2023-11-04T05:32:00.135Z,1.83
2023-11-04T05:34:27.912Z,2.03
2023-11-04T05:36:55.444Z,2.80
2023-11-04T05:39:23.264Z,2.50
2023-11-04T05:41:50.713Z,2.45
2023-11-04T05:44:18.587Z,3.08
2023-11-04T05:46:48.770Z,2.35
2023-11-04T05:49:16.616Z,3.95
2023-11-04T05:51:44.139Z,1.70
2023-11-04T05:54:13.540Z,2.45
2023-11-04T05:56:41.029Z,3.30
2023-11-04T05:59:08.854Z,3.53
2023-11-04T06:01:36.416Z,2.67
2023-11-04T06:04:04.314Z,3.28
2023-11-04T06:06:31.881Z,4.78
2023-11-04T06:08:59.676Z,1.88
2023-11-04T06:11:27.178Z,3.80
2023-11-04T06:13:55.567Z,3.17
2023-11-04T06:16:23.366Z,4.97
2023-11-04T06:18:51.332Z,4.18
2023-11-04T06:21:19.120Z,4.47
2023-11-04T06:23:47.428Z,3.45
2023-11-04T06:26:24.119Z,2.30
2023-11-04T06:28:52.320Z,2.63
2023-11-04T06:31:22.471Z,2.63
2023-11-04T06:33:51.653Z,2.50
2023-11-04T06:36:19.149Z,2.13
2023-11-04T06:38:47.083Z,2.97
2023-11-04T06:41:17.515Z,2.78
2023-11-04T06:43:45.961Z,1.85
2023-11-04T06:46:16.503Z,2.00
2023-11-04T06:48:44.531Z,2.55
2023-11-04T06:51:12.282Z,1.48
2023-11-04T06:53:40.052Z,2.17
2023-11-04T06:56:10.043Z,2.33
2023-11-04T06:58:37.758Z,2.40
2023-11-04T07:01:05.065Z,1.77
2023-11-04T07:03:33.191Z,2.90
2023-11-04T07:06:00.772Z,2.47
2023-11-04T07:08:28.572Z,2.10
2023-11-04T07:10:56.045Z,1.33
2023-11-04T07:13:24.115Z,2.90
2023-11-04T07:15:53.089Z,3.58
2023-11-04T07:18:21.039Z,2.95
2023-11-04T07:20:49.172Z,3.88
2023-11-04T07:23:18.495Z,2.67
2023-11-04T07:25:46.161Z,4.28
2023-11-04T07:28:14.035Z,3.78
2023-11-04T07:30:41.610Z,3.40
2023-11-04T07:33:09.959Z,3.42
2023-11-04T07:35:37.668Z,2.35
2023-11-04T07:38:05.475Z,2.83
2023-11-04T07:40:32.973Z,3.65
2023-11-04T07:43:00.762Z,3.45
2023-11-04T07:45:29.904Z,5.28
2023-11-04T07:47:57.954Z,3.70
2023-11-04T07:50:25.448Z,3.97
2023-11-04T07:52:58.723Z,4.30
2023-11-04T07:55:27.040Z,2.90
2023-11-04T07:57:54.929Z,4.68
2023-11-04T08:00:22.392Z,5.05
2023-11-04T08:02:50.611Z,8.50
2023-11-04T08:05:18.224Z,5.82
2023-11-04T08:07:46.016Z,8.50
2023-11-04T08:10:13.579Z,7.60
2023-11-04T08:12:41.434Z,7.03
2023-11-04T08:15:09.028Z,9.32
2023-11-04T08:17:37.188Z,5.18
2023-11-04T08:20:09.742Z,6.25
2023-11-04T08:22:39.305Z,8.15
2023-11-04T08:25:10.643Z,6.93
2023-11-04T08:27:40.032Z,6.13
2023-11-04T08:30:08.721Z,5.35
2023-11-04T08:32:37.010Z,6.03
2023-11-04T08:35:05.598Z,5.63
2023-11-04T08:37:33.501Z,9.73
2023-11-04T08:40:01.025Z,5.53
2023-11-04T08:42:29.458Z,8.90
2023-11-04T08:44:56.883Z,6.97
2023-11-04T08:47:24.800Z,4.95
2023-11-04T08:49:52.424Z,7.97
2023-11-04T08:52:20.482Z,6.13
2023-11-04T08:54:47.974Z,7.93
2023-11-04T08:57:16.194Z,2.95
2023-11-04T08:59:43.812Z,5.38
2023-11-04T09:02:12.684Z,3.45
2023-11-04T09:04:40.215Z,4.88
2023-11-04T09:07:08.243Z,4.38
2023-11-04T09:09:35.848Z,3.10
2023-11-04T09:12:03.677Z,3.80
2023-11-04T09:14:31.133Z,5.88
2023-11-04T09:16:58.974Z,2.95
2023-11-04T09:19:26.424Z,4.95
2023-11-04T09:21:54.321Z,5.28
2023-11-04T09:24:21.830Z,4.30
2023-11-04T09:26:49.569Z,5.00
2023-11-04T09:29:16.994Z,4.30
2023-11-04T09:31:44.783Z,3.13
2023-11-04T09:34:12.532Z,4.72
2023-11-04T09:36:41.847Z,5.07
2023-11-04T09:39:09.910Z,4.28
2023-11-04T09:41:38.305Z,3.60
2023-11-04T09:44:06.000Z,4.70
2023-11-04T09:46:34.745Z,4.45
2023-11-04T09:49:02.379Z,3.95
2023-11-04T09:51:30.559Z,4.63
2023-11-04T09:54:00.269Z,3.97
2023-11-04T09:56:28.187Z,4.50
2023-11-04T09:58:55.745Z,3.08
2023-11-04T10:01:24.996Z,2.97
2023-11-04T10:03:52.760Z,3.63
2023-11-04T10:06:21.129Z,3.17
2023-11-04T10:08:48.527Z,4.22
2023-11-04T10:11:16.345Z,3.13
2023-11-04T10:13:43.810Z,3.25
2023-11-04T10:16:13.504Z,2.75
2023-11-04T10:18:41.213Z,3.15
2023-11-04T10:21:09.778Z,3.60
2023-11-04T10:23:37.337Z,4.10
2023-11-04T10:26:05.967Z,3.40
2023-11-04T10:28:36.862Z,2.60
2023-11-04T10:31:07.050Z,2.65
2023-11-04T10:33:38.613Z,2.97
2023-11-04T10:36:07.796Z,2.75
2023-11-04T10:38:39.200Z,2.55
2023-11-04T10:41:08.733Z,2.97
2023-11-04T10:43:46.216Z,2.83
2023-11-04T10:46:18.608Z,2.60
2023-11-04T10:48:54.256Z,2.92
2023-11-04T10:51:29.888Z,2.28
2023-11-04T10:54:02.627Z,2.42
2023-11-04T10:56:35.979Z,2.53
2023-11-04T10:59:12.124Z,2.65
2023-11-04T11:01:43.381Z,2.70
2023-11-04T11:04:11.972Z,3.50
2023-11-04T11:06:41.189Z,3.50
2023-11-04T11:09:10.415Z,2.47
2023-11-04T11:12:01.512Z,1.75
2023-11-04T11:14:29.498Z,2.83
2023-11-04T11:17:01.855Z,3.15
2023-11-04T11:19:29.605Z,2.05
2023-11-04T11:21:57.451Z,2.63
2023-11-04T11:24:25.199Z,3.03
2023-11-04T11:26:55.195Z,2.55
2023-11-04T11:29:23.619Z,2.85
2023-11-04T11:31:52.367Z,2.33
2023-11-04T11:34:24.097Z,2.75
2023-11-04T11:36:54.471Z,2.20
2023-11-04T11:39:22.138Z,2.08
2023-11-04T11:41:50.206Z,1.83
2023-11-04T11:44:17.776Z,2.65
2023-11-04T11:46:45.578Z,1.73
2023-11-04T11:49:13.077Z,1.80
2023-11-04T11:51:41.609Z,2.63
2023-11-04T11:54:09.208Z,2.15
2023-11-04T11:56:39.169Z,2.13
2023-11-04T11:59:08.127Z,2.30
2023-11-04T12:01:36.075Z,1.30
2023-11-04T12:04:04.020Z,2.65
2023-11-04T12:06:32.356Z,2.03
2023-11-04T12:09:00.233Z,2.08
2023-11-04T12:11:29.746Z,1.95
2023-11-04T12:14:00.070Z,1.67
2023-11-04T12:16:30.663Z,1.98
2023-11-04T12:18:58.350Z,1.70
2023-11-04T12:21:26.281Z,1.52
2023-11-04T12:23:53.876Z,1.73
2023-11-04T12:26:30.178Z,1.65
2023-11-04T12:28:58.399Z,2.40
2023-11-04T12:31:26.447Z,1.58
2023-11-04T12:33:54.309Z,1.88
2023-11-04T12:36:23.001Z,2.08
2023-11-04T12:38:50.700Z,2.38
2023-11-04T12:41:20.349Z,2.20
2023-11-04T12:43:51.306Z,1.35
2023-11-04T12:46:22.714Z,1.75
2023-11-04T12:48:50.812Z,2.30
2023-11-04T12:51:19.881Z,2.92
2023-11-04T12:53:47.380Z,2.10
2023-11-04T12:56:15.194Z,2.13
2023-11-04T12:58:42.632Z,1.55
2023-11-04T13:01:10.710Z,1.95
2023-11-04T13:03:39.208Z,2.47
2023-11-04T13:06:08.241Z,2.28
2023-11-04T13:08:35.770Z,1.50
2023-11-04T13:11:03.596Z,1.50
2023-11-04T13:13:31.209Z,2.28
2023-11-04T13:15:59.093Z,2.35
2023-11-04T13:18:26.659Z,2.60
2023-11-04T13:20:54.659Z,1.65
2023-11-04T13:23:22.159Z,1.30
2023-11-04T13:25:50.150Z,2.00
2023-11-04T13:28:17.660Z,1.85
2023-11-04T13:30:45.499Z,1.85
2023-11-04T13:33:13.189Z,1.70
2023-11-04T13:35:41.714Z,2.17
2023-11-04T13:38:09.247Z,1.60
2023-11-04T13:40:37.849Z,1.65
2023-11-04T13:43:06.125Z,1.58
2023-11-04T13:45:33.918Z,1.55
2023-11-04T13:48:04.067Z,1.58
2023-11-04T13:50:31.988Z,2.00
2023-11-04T13:53:00.154Z,2.08
2023-11-04T13:55:28.213Z,2.03
2023-11-04T13:57:55.797Z,2.15
2023-11-04T14:00:23.677Z,1.77
2023-11-04T14:02:51.628Z,1.75
2023-11-04T14:05:19.752Z,2.38
2023-11-04T14:07:47.488Z,2.28
2023-11-04T14:10:15.821Z,2.15
2023-11-04T14:12:43.288Z,1.77
2023-11-04T14:15:11.672Z,1.63
2023-11-04T14:17:39.333Z,2.53
2023-11-04T14:20:07.883Z,1.88
2023-11-04T14:22:35.735Z,2.38
2023-11-04T14:25:04.887Z,1.77
2023-11-04T14:27:32.526Z,2.95
2023-11-04T14:30:02.467Z,2.15
2023-11-04T14:32:30.306Z,2.63
2023-11-04T14:34:58.326Z,2.72
2023-11-04T14:37:25.776Z,3.00
2023-11-04T14:39:53.989Z,3.00
2023-11-04T14:42:23.973Z,3.03
2023-11-04T14:44:52.320Z,2.88
2023-11-04T14:47:19.963Z,2.53
2023-11-04T14:49:47.758Z,2.88
2023-11-04T14:52:15.203Z,2.63
2023-11-04T14:54:43.139Z,3.35
2023-11-04T14:57:10.748Z,3.05
2023-11-04T14:59:38.534Z,2.53
2023-11-04T15:02:06.468Z,3.22
2023-11-04T15:04:34.628Z,3.20
2023-11-04T15:07:02.329Z,3.92
2023-11-04T15:09:30.138Z,3.72
2023-11-04T15:11:57.602Z,3.53
2023-11-04T15:14:25.436Z,4.00
2023-11-04T15:16:52.985Z,4.53
2023-11-04T15:19:20.943Z,4.07
2023-11-04T15:21:49.968Z,6.35
2023-11-04T15:24:17.939Z,5.10
2023-11-04T15:26:45.452Z,3.88
2023-11-04T15:29:13.278Z,4.28
2023-11-04T15:31:40.692Z,4.22
2023-11-04T15:34:09.229Z,4.97
2023-11-04T15:36:36.810Z,5.57
2023-11-04T15:39:04.676Z,6.55
2023-11-04T15:41:33.429Z,5.07
2023-11-04T15:44:01.296Z,4.22
2023-11-04T15:46:29.214Z,4.60
2023-11-04T15:48:57.002Z,5.35
2023-11-04T15:51:24.725Z,7.18
2023-11-04T15:53:52.611Z,9.68
2023-11-04T15:56:20.219Z,20.55
2023-11-04T15:58:48.118Z,25.48
2023-11-04T16:01:15.690Z,23.42
2023-11-04T16:03:43.589Z,26.98
2023-11-04T16:06:11.029Z,20.75
2023-11-04T16:08:38.865Z,13.43
2023-11-04T16:11:06.578Z,11.65
2023-11-04T16:13:34.432Z,10.05
2023-11-04T16:16:02.688Z,9.73
2023-11-04T16:18:30.750Z,8.23
2023-11-04T16:20:58.261Z,7.88
2023-11-04T16:23:26.141Z,10.40
2023-11-04T16:25:53.569Z,11.75
2023-11-04T16:28:21.897Z,12.98
2023-11-04T16:30:49.355Z,10.02
2023-11-04T16:33:17.848Z,10.60
2023-11-04T16:35:45.295Z,11.50
2023-11-04T16:38:13.053Z,10.02
2023-11-04T16:40:40.452Z,11.80
2023-11-04T16:43:08.241Z,10.70
2023-11-04T16:45:35.725Z,8.23
2023-11-04T16:48:05.865Z,10.05
2023-11-04T16:50:33.489Z,9.30
2023-11-04T16:53:01.243Z,10.73
2023-11-04T16:55:28.733Z,9.45
2023-11-04T16:57:56.536Z,9.15
2023-11-04T17:00:24.109Z,8.82
2023-11-04T17:02:51.982Z,6.93
2023-11-04T17:05:19.568Z,9.07
2023-11-04T17:07:47.667Z,8.70
2023-11-04T17:10:15.272Z,10.73
2023-11-04T17:12:43.301Z,11.23
2023-11-04T17:15:11.034Z,11.32
2023-11-04T17:17:38.918Z,10.80
2023-11-04T17:20:06.571Z,10.80
2023-11-04T17:22:34.928Z,10.98
2023-11-04T17:25:03.825Z,10.70
2023-11-04T17:27:31.717Z,9.98
2023-11-04T17:29:59.146Z,9.52
2023-11-04T17:32:27.718Z,9.88
2023-11-04T17:34:55.229Z,10.55
2023-11-04T17:37:23.884Z,9.93
2023-11-04T17:39:54.217Z,10.13
2023-11-04T17:42:22.261Z,10.45
2023-11-04T17:44:49.823Z,10.85
2023-11-04T17:47:17.634Z,11.23
2023-11-04T17:49:45.620Z,11.13
2023-11-04T17:52:13.597Z,13.63
2023-11-04T17:54:41.152Z,14.20
2023-11-04T17:57:09.772Z,15.38
2023-11-04T17:59:37.511Z,15.25
2023-11-04T18:02:05.360Z,15.50
2023-11-04T18:04:33.132Z,16.92
2023-11-04T18:07:01.096Z,18.85
2023-11-04T18:09:28.614Z,16.63
2023-11-04T18:11:56.535Z,19.77
2023-11-04T18:14:25.499Z,18.73
2023-11-04T18:16:53.365Z,15.82
2023-11-04T18:19:20.998Z,17.83
2023-11-04T18:21:49.213Z,15.40
2023-11-04T18:24:18.958Z,16.85
2023-11-04T18:26:46.796Z,17.05
2023-11-04T18:29:14.257Z,15.77
2023-11-04T18:31:42.237Z,14.05
2023-11-04T18:34:09.808Z,15.45
2023-11-04T18:36:37.837Z,15.68
2023-11-04T18:39:05.659Z,17.42
2023-11-04T18:41:33.531Z,15.13
2023-11-04T18:44:01.012Z,16.45
2023-11-04T18:46:29.309Z,16.73
2023-11-04T18:48:56.853Z,18.73
2023-11-04T18:51:24.927Z,19.42
2023-11-04T18:53:52.461Z,17.63
2023-11-04T18:56:20.248Z,17.52
2023-11-04T18:58:47.796Z,15.90
2023-11-04T19:01:22.323Z,15.40
2023-11-04T19:03:50.496Z,15.05
2023-11-04T19:06:20.793Z,13.48
2023-11-04T19:08:48.432Z,13.68
2023-11-04T19:11:18.923Z,12.38
2023-11-04T19:13:47.088Z,11.32
2023-11-04T19:16:14.561Z,14.20
2023-11-04T19:18:42.660Z,13.77
2023-11-04T19:21:10.746Z,14.20
2023-11-04T19:23:38.786Z,17.52
2023-11-04T19:26:06.795Z,20.67
2023-11-04T19:28:34.601Z,17.85
2023-11-04T19:31:02.237Z,18.08
2023-11-04T19:33:33.234Z,20.40
2023-11-04T19:36:00.918Z,23.30
2023-11-04T19:38:28.814Z,24.70
2023-11-04T19:40:56.314Z,23.38
2023-11-04T19:43:24.416Z,21.15
2023-11-04T19:45:51.901Z,19.30
2023-11-04T19:48:19.801Z,19.23
2023-11-04T19:50:47.303Z,17.92
2023-11-04T19:53:15.065Z,17.65
2023-11-04T19:55:42.495Z,16.33
2023-11-04T19:58:10.308Z,13.90
2023-11-04T20:00:37.833Z,15.63
2023-11-04T20:03:05.947Z,15.27
2023-11-04T20:05:33.643Z,13.45
2023-11-04T20:08:01.164Z,11.88
2023-11-04T20:10:28.936Z,12.65
2023-11-04T20:12:56.734Z,13.38
2023-11-04T20:15:24.609Z,15.27
2023-11-04T20:17:52.167Z,16.27
2023-11-04T20:20:19.946Z,17.00
2023-11-04T20:22:47.516Z,15.05
2023-11-04T20:25:15.332Z,16.40
2023-11-04T20:27:42.820Z,14.90
2023-11-04T20:30:10.887Z,14.80
2023-11-04T20:32:38.383Z,14.05
2023-11-04T20:35:06.406Z,14.40
2023-11-04T20:37:35.482Z,13.88
2023-11-04T20:40:05.380Z,15.88
2023-11-04T20:42:33.492Z,15.73
2023-11-04T20:45:01.441Z,13.90
2023-11-04T20:47:29.026Z,14.15
2023-11-04T20:49:57.886Z,14.15
2023-11-04T20:52:26.447Z,12.55
2023-11-04T20:54:56.128Z,12.82
2023-11-04T20:57:23.606Z,13.27
2023-11-04T20:59:51.382Z,15.27
2023-11-04T21:02:18.990Z,13.82
2023-11-04T21:04:47.418Z,13.52
2023-11-04T21:07:14.924Z,14.73
2023-11-04T21:09:42.722Z,16.40
2023-11-04T21:12:10.423Z,15.13
2023-11-04T21:14:38.481Z,15.15
2023-11-04T21:17:05.971Z,16.33
2023-11-04T21:19:33.813Z,15.30
2023-11-04T21:22:03.793Z,14.50
2023-11-04T21:24:31.665Z,15.38
2023-11-04T21:26:59.318Z,14.25
2023-11-04T21:29:27.026Z,11.60
2023-11-04T21:31:54.747Z,12.30
2023-11-04T21:34:22.704Z,13.20
2023-11-04T21:36:50.249Z,11.60
2023-11-04T21:39:18.022Z,10.25
2023-11-04T21:41:45.452Z,10.68
2023-11-04T21:44:13.269Z,10.43
2023-11-04T21:46:40.736Z,10.02
2023-11-04T21:49:08.555Z,10.38
2023-11-04T21:51:36.005Z,11.60
2023-11-04T21:54:04.097Z,10.93
2023-11-04T21:56:31.568Z,10.35
2023-11-04T21:58:59.375Z,10.35
2023-11-04T22:01:26.862Z,12.00
2023-11-04T22:03:54.949Z,11.05
2023-11-04T22:06:22.432Z,10.73
2023-11-04T22:08:50.309Z,11.90
2023-11-04T22:11:17.757Z,11.55
2023-11-04T22:13:45.565Z,12.48
2023-11-04T22:16:13.123Z,11.77
2023-11-04T22:18:41.042Z,11.45
2023-11-04T22:21:08.648Z,11.82
2023-11-04T22:23:36.356Z,11.38
2023-11-04T22:26:03.895Z,10.70
2023-11-04T22:28:31.946Z,11.15
2023-11-04T22:30:59.459Z,12.18
2023-11-04T22:33:27.297Z,12.43
2023-11-04T22:35:55.288Z,12.63
2023-11-04T22:38:23.018Z,14.00
2023-11-04T22:40:50.476Z,14.32
2023-11-04T22:43:18.244Z,14.90
2023-11-04T22:45:45.726Z,15.00
2023-11-04T22:48:13.867Z,14.70
2023-11-04T22:50:41.616Z,15.25
2023-11-04T22:53:09.332Z,14.30
2023-11-04T22:55:36.757Z,13.18
2023-11-04T22:58:04.514Z,14.65
2023-11-04T23:00:40.007Z,12.93
2023-11-04T23:03:09.778Z,13.82
2023-11-04T23:05:37.791Z,14.05
2023-11-04T23:08:06.025Z,13.65
2023-11-04T23:10:33.491Z,13.90
2023-11-04T23:13:02.174Z,14.38
2023-11-04T23:15:29.675Z,13.27
2023-11-04T23:17:57.630Z,14.80
2023-11-04T23:20:25.282Z,13.77
2023-11-04T23:22:54.246Z,14.20
2023-11-04T23:25:22.559Z,17.15
2023-11-04T23:27:51.275Z,15.90
2023-11-04T23:30:18.849Z,16.40
2023-11-04T23:32:46.875Z,14.65
2023-11-04T23:35:15.435Z,15.13
2023-11-04T23:37:43.548Z,16.70
2023-11-04T23:40:11.383Z,18.20
2023-11-04T23:42:39.169Z,18.60
2023-11-04T23:45:06.759Z,17.10
2023-11-04T23:47:34.575Z,19.30
2023-11-04T23:50:02.082Z,19.42
2023-11-04T23:52:29.925Z,17.58
2023-11-04T23:54:57.515Z,15.70
2023-11-04T23:57:25.306Z,16.10
2023-11-04T23:59:52.716Z,15.27
